Terminal Aerodrome Forecast
Issued by NWS Twin Cities, MN

Home | Current Version | Previous Version | Graphics & Text | Print | Product List | Glossary On
Versions: 1 2 3 4 5 6 7 8 9 10 11 12 13 14 15 16 17 18
000
FTUS43 KMPX 211700
TAFSTC
TAF
KSTC 211724Z 2118/2218 16011KT P6SM SCT040 SCT350
     FM220300 15007KT P6SM VCSH SCT050 BKN150 PROB30 2204/2206
      27025G35KT 2SM TSRA BKN040CB OVC120
     FM220700 14006KT 6SM HZ SCT040 BKN120
     FM220800 25004KT 4SM BR FEW008 BKN015
     FM221400 31014G21KT P6SM SCT020 SCT250=

USA.gov is the U.S. government's official web portal to all federal, state and local government web resources and services.